Time;durP1;ratioP1;P1;durP2;ratioP2;P2;SDS_P1;SDS_P2;PMS_P1;PMS_P2;Temp;Humidity;BMP_temperature;BMP_pressure;BME280_temperature;BME280_humidity;BME280_pressure;Samples;Min_cycle;Max_cycle;Signal;HPM_P1;HPM_P2
2022/02/24 00:02:21;;;;;;;;;;;;;;;;;;5071377;28;19920;-75
2022/02/24 00:04:46;;;;;;;;;;;;;;;;;;5052702;28;20351;-75
2022/02/24 00:07:12;;;;;;;;;;;;;;;;;;5070274;28;19963;-75
2022/02/24 00:09:38;;;;;;;;;;;;;;;;;;5068529;28;20015;-74
2022/02/24 00:12:04;;;;;;;;;;;;;;;;;;5070401;28;20035;-75
2022/02/24 00:14:30;;;;;;;;;;;;;;;;;;5069965;28;19921;-73
2022/02/24 00:16:55;;;;;;;;;;;;;;;;;;5070410;28;19917;-74
2022/02/24 00:19:20;;;;;;;;;;;;;;;;;;5052388;28;19970;-75
2022/02/24 00:21:46;;;;;;;;;;;;;;;;;;5052383;28;19920;-74
2022/02/24 00:24:11;;;;;;;;;;;;;;;;;;5069669;28;20297;-75
2022/02/24 00:26:37;;;;;;;;;;;;;;;;;;5069772;28;20007;-73
2022/02/24 00:29:03;;;;;;;;;;;;;;;;;;5069979;28;20005;-72
2022/02/24 00:31:28;;;;;;;;;;;;;;;;;;5069805;28;20384;-74
2022/02/24 00:33:53;;;;;;;;;;;;;;;;;;5051951;28;19920;-75
2022/02/24 00:36:19;;;;;;;;;;;;;;;;;;5069941;28;19923;-75
2022/02/24 00:38:44;;;;;;;;;;;;;;;;;;5069865;28;19924;-75
2022/02/24 00:41:09;;;;;;;;;;;;;;;;;;5069756;28;19969;-75
2022/02/24 00:43:35;;;;;;;;;;;;;;;;;;5069619;28;20022;-75
2022/02/24 00:46:00;;;;;;;;;;;;;;;;;;5069617;28;20272;-74
2022/02/24 00:48:25;;;;;;;;;;;;;;;;;;5069638;28;20228;-75
2022/02/24 00:50:51;;;;;;;;;;;;;;;;;;5069811;28;19921;-74
2022/02/24 00:53:16;;;;;;;;;;;;;;;;;;5069667;28;19921;-73
2022/02/24 00:55:41;;;;;;;;;;;;;;;;;;5051330;28;19931;-73
2022/02/24 00:58:07;;;;;;;;;;;;;;;;;;5069781;28;20273;-75
2022/02/24 01:00:32;;;;;;;;;;;;;;;;;;5069313;28;19923;-75
2022/02/24 01:02:57;;;;;;;;;;;;;;;;;;5069523;28;19917;-74
2022/02/24 01:05:23;;;;;;;;;;;;;;;;;;5069527;28;19928;-75
2022/02/24 01:07:48;;;;;;;;;;;;;;;;;;5069279;28;19928;-75
2022/02/24 01:10:13;;;;;;;;;;;;;;;;;;5069566;28;20342;-75
2022/02/24 01:12:39;;;;;;;;;;;;;;;;;;5051275;28;20228;-75
2022/02/24 01:15:07;;;;;;;;;;;;;;;;;;5050976;28;19921;-75
2022/02/24 01:17:36;;;;;;;;;;;;;;;;;;5051157;28;20335;-74
2022/02/24 01:20:02;;;;;;;;;;;;;;;;;;5069277;28;19920;-76
2022/02/24 01:22:28;;;;;;;;;;;;;;;;;;5069415;28;19917;-75
2022/02/24 01:24:53;;;;;;;;;;;;;;;;;;5051487;28;19920;-75
2022/02/24 01:27:19;;;;;;;;;;;;;;;;;;5069807;28;19920;-74
2022/02/24 01:29:44;;;;;;;;;;;;;;;;;;5051289;28;19920;-74
2022/02/24 01:32:10;;;;;;;;;;;;;;;;;;5069581;28;20292;-76
2022/02/24 01:34:35;;;;;;;;;;;;;;;;;;5069108;28;19973;-75
2022/02/24 01:37:00;;;;;;;;;;;;;;;;;;5051883;28;19917;-76
2022/02/24 01:39:26;;;;;;;;;;;;;;;;;;5051161;28;20015;-73
2022/02/24 01:41:52;;;;;;;;;;;;;;;;;;5069788;28;19916;-75
2022/02/24 01:44:17;;;;;;;;;;;;;;;;;;5068946;28;19928;-75
2022/02/24 01:46:43;;;;;;;;;;;;;;;;;;5050827;28;19927;-75
2022/02/24 01:49:09;;;;;;;;;;;;;;;;;;5069102;28;19948;-76
2022/02/24 01:51:35;;;;;;;;;;;;;;;;;;5068024;28;19920;-74
2022/02/24 01:54:01;;;;;;;;;;;;;;;;;;5072716;28;19966;-75
2022/02/24 01:56:26;;;;;;;;;;;;;;;;;;5074362;28;20368;-76
2022/02/24 01:58:51;;;;;;;;;;;;;;;;;;5055862;28;19916;-74
2022/02/24 02:01:17;;;;;;;;;;;;;;;;;;5055353;28;19917;-75
2022/02/24 02:03:43;;;;;;;;;;;;;;;;;;5055310;28;19928;-73
2022/02/24 02:06:08;;;;;;;;;;;;;;;;;;5072374;28;19920;-72
2022/02/24 02:08:34;;;;;;;;;;;;;;;;;;5072384;28;19939;-71
2022/02/24 02:11:00;;;;;;;;;;;;;;;;;;5072415;28;19966;-72
2022/02/24 02:13:25;;;;;;;;;;;;;;;;;;5054006;28;20002;-72
2022/02/24 02:15:54;;;;;;;;;;;;;;;;;;5071905;28;19979;-72
2022/02/24 02:18:20;;;;;;;;;;;;;;;;;;5072080;28;19966;-72
2022/02/24 02:20:45;;;;;;;;;;;;;;;;;;5054206;28;20346;-72
2022/02/24 02:23:11;;;;;;;;;;;;;;;;;;5072214;28;19917;-71
2022/02/24 02:25:36;;;;;;;;;;;;;;;;;;5070211;28;19944;-72
2022/02/24 02:28:02;;;;;;;;;;;;;;;;;;5054058;28;19921;-72
2022/02/24 02:30:27;;;;;;;;;;;;;;;;;;5054056;28;19920;-73
2022/02/24 02:32:53;;;;;;;;;;;;;;;;;;5053970;28;20356;-72
2022/02/24 02:35:18;;;;;;;;;;;;;;;;;;5053741;28;20015;-71
2022/02/24 02:37:43;;;;;;;;;;;;;;;;;;5053992;28;19916;-72
2022/02/24 02:40:09;;;;;;;;;;;;;;;;;;5071681;28;19987;-72
2022/02/24 02:42:35;;;;;;;;;;;;;;;;;;5070641;28;20003;-72
2022/02/24 02:45:03;;;;;;;;;;;;;;;;;;5071584;28;19917;-72
2022/02/24 02:47:28;;;;;;;;;;;;;;;;;;5053329;28;20162;-72
2022/02/24 02:49:53;;;;;;;;;;;;;;;;;;5053378;28;19916;-72
2022/02/24 02:52:19;;;;;;;;;;;;;;;;;;5071647;28;19974;-72
2022/02/24 02:54:45;;;;;;;;;;;;;;;;;;5071086;28;20420;-73
2022/02/24 02:57:11;;;;;;;;;;;;;;;;;;5071564;28;20336;-72
2022/02/24 02:59:36;;;;;;;;;;;;;;;;;;5071696;28;19925;-72
2022/02/24 03:02:03;;;;;;;;;;;;;;;;;;5071698;28;20003;-72
2022/02/24 03:04:28;;;;;;;;;;;;;;;;;;5052025;28;19917;-72
2022/02/24 03:06:54;;;;;;;;;;;;;;;;;;5071129;28;19928;-72
2022/02/24 03:09:19;;;;;;;;;;;;;;;;;;5053204;28;19923;-73
2022/02/24 03:11:44;;;;;;;;;;;;;;;;;;5071235;28;19924;-72
2022/02/24 03:14:10;;;;;;;;;;;;;;;;;;5071250;28;19947;-73
2022/02/24 03:16:35;;;;;;;;;;;;;;;;;;5071322;28;20010;-74
2022/02/24 03:19:00;;;;;;;;;;;;;;;;;;5053519;28;19917;-73
2022/02/24 03:21:27;;;;;;;;;;;;;;;;;;5053147;28;20280;-71
2022/02/24 03:23:52;;;;;;;;;;;;;;;;;;5071135;28;19923;-72
2022/02/24 03:26:18;;;;;;;;;;;;;;;;;;5052820;28;19924;-73
2022/02/24 03:28:43;;;;;;;;;;;;;;;;;;5070727;28;20240;-72
2022/02/24 03:31:09;;;;;;;;;;;;;;;;;;5070752;28;19920;-72
2022/02/24 03:33:35;;;;;;;;;;;;;;;;;;5052802;28;20065;-74
2022/02/24 03:36:00;;;;;;;;;;;;;;;;;;5071245;28;19923;-75
2022/02/24 03:38:26;;;;;;;;;;;;;;;;;;5071321;28;19920;-75
2022/02/24 03:40:51;;;;;;;;;;;;;;;;;;5071004;28;19959;-75
2022/02/24 03:43:16;;;;;;;;;;;;;;;;;;5053300;28;19924;-74
2022/02/24 03:45:43;;;;;;;;;;;;;;;;;;5070736;28;19917;-75
2022/02/24 03:48:08;;;;;;;;;;;;;;;;;;5052720;28;19924;-74
2022/02/24 03:50:35;;;;;;;;;;;;;;;;;;5070875;28;20354;-72
2022/02/24 03:53:00;;;;;;;;;;;;;;;;;;5053108;28;20375;-75
2022/02/24 03:55:25;;;;;;;;;;;;;;;;;;5070947;28;19924;-75
2022/02/24 03:57:51;;;;;;;;;;;;;;;;;;5070673;28;20483;-75
2022/02/24 04:00:16;;;;;;;;;;;;;;;;;;5070522;28;20415;-74
2022/02/24 04:02:42;;;;;;;;;;;;;;;;;;5070593;28;19916;-75
2022/02/24 04:05:09;;;;;;;;;;;;;;;;;;5070582;28;19927;-73
2022/02/24 04:07:35;;;;;;;;;;;;;;;;;;5052721;28;19920;-75
2022/02/24 04:10:00;;;;;;;;;;;;;;;;;;5070736;28;19916;-74
2022/02/24 04:12:26;;;;;;;;;;;;;;;;;;5070839;28;20269;-75
2022/02/24 04:14:51;;;;;;;;;;;;;;;;;;5052000;28;19921;-73
2022/02/24 04:17:16;;;;;;;;;;;;;;;;;;5070234;28;19965;-77
2022/02/24 04:19:42;;;;;;;;;;;;;;;;;;5070589;28;19917;-76
2022/02/24 04:22:08;;;;;;;;;;;;;;;;;;5052560;28;20237;-76
2022/02/24 04:24:33;;;;;;;;;;;;;;;;;;5070378;28;19916;-75
2022/02/24 04:26:59;;;;;;;;;;;;;;;;;;5070412;28;20242;-75
2022/02/24 04:29:24;;;;;;;;;;;;;;;;;;5052416;28;19922;-76
2022/02/24 04:31:50;;;;;;;;;;;;;;;;;;5070301;28;20403;-73
2022/02/24 04:34:15;;;;;;;;;;;;;;;;;;5051786;28;20419;-74
2022/02/24 04:36:40;;;;;;;;;;;;;;;;;;5069831;28;19920;-74
2022/02/24 04:39:06;;;;;;;;;;;;;;;;;;5070364;28;20387;-75
2022/02/24 04:41:31;;;;;;;;;;;;;;;;;;5051930;28;20426;-75
2022/02/24 04:43:56;;;;;;;;;;;;;;;;;;5070398;28;19920;-75
2022/02/24 04:46:22;;;;;;;;;;;;;;;;;;5070632;28;19963;-73
2022/02/24 04:48:47;;;;;;;;;;;;;;;;;;5070454;28;19927;-74
2022/02/24 04:51:14;;;;;;;;;;;;;;;;;;5052443;28;20265;-74
2022/02/24 04:53:39;;;;;;;;;;;;;;;;;;5069847;28;20011;-75
2022/02/24 04:56:06;;;;;;;;;;;;;;;;;;5069351;28;20353;-72
2022/02/24 04:58:32;;;;;;;;;;;;;;;;;;5051610;28;19921;-71
2022/02/24 05:00:57;;;;;;;;;;;;;;;;;;5051521;28;19924;-72
2022/02/24 05:03:23;;;;;;;;;;;;;;;;;;5069288;28;19916;-72
2022/02/24 05:05:48;;;;;;;;;;;;;;;;;;5051099;28;19916;-73
2022/02/24 05:08:13;;;;;;;;;;;;;;;;;;5069347;28;20034;-72
2022/02/24 05:10:39;;;;;;;;;;;;;;;;;;5069415;28;19959;-72
2022/02/24 05:13:04;;;;;;;;;;;;;;;;;;5069632;28;20369;-72
2022/02/24 05:15:30;;;;;;;;;;;;;;;;;;5051174;28;19924;-72
2022/02/24 05:17:56;;;;;;;;;;;;;;;;;;5068875;28;19927;-72
2022/02/24 05:20:22;;;;;;;;;;;;;;;;;;5069397;28;19923;-71
2022/02/24 05:22:47;;;;;;;;;;;;;;;;;;5051128;28;20144;-72
2022/02/24 05:25:14;;;;;;;;;;;;;;;;;;5051473;28;20015;-73
2022/02/24 05:27:42;;;;;;;;;;;;;;;;;;5070240;28;19928;-72
2022/02/24 05:30:08;;;;;;;;;;;;;;;;;;5074829;28;19928;-73
2022/02/24 05:32:33;;;;;;;;;;;;;;;;;;5054744;28;19928;-72
2022/02/24 05:34:59;;;;;;;;;;;;;;;;;;5073341;28;19974;-74
2022/02/24 05:37:26;;;;;;;;;;;;;;;;;;5073471;28;19921;-73
2022/02/24 05:39:55;;;;;;;;;;;;;;;;;;5072885;28;20298;-72
2022/02/24 05:42:21;;;;;;;;;;;;;;;;;;5055266;28;19916;-73
2022/02/24 05:44:47;;;;;;;;;;;;;;;;;;5054862;28;19927;-73
2022/02/24 05:47:12;;;;;;;;;;;;;;;;;;5073015;28;19971;-72
2022/02/24 05:49:38;;;;;;;;;;;;;;;;;;5073143;28;19916;-73
2022/02/24 05:52:05;;;;;;;;;;;;;;;;;;5072972;28;20331;-72
2022/02/24 05:54:30;;;;;;;;;;;;;;;;;;5072797;28;19927;-72
2022/02/24 05:56:56;;;;;;;;;;;;;;;;;;5054721;28;19917;-72
2022/02/24 05:59:22;;;;;;;;;;;;;;;;;;5072501;28;19919;-72
2022/02/24 06:01:47;;;;;;;;;;;;;;;;;;5054330;28;19921;-72
2022/02/24 06:04:12;;;;;;;;;;;;;;;;;;5054619;28;19999;-72
2022/02/24 06:06:38;;;;;;;;;;;;;;;;;;5055021;28;19923;-71
2022/02/24 06:09:03;;;;;;;;;;;;;;;;;;5054341;28;20023;-72
2022/02/24 06:11:28;;;;;;;;;;;;;;;;;;5072448;28;19920;-72
2022/02/24 06:13:54;;;;;;;;;;;;;;;;;;5065617;28;19932;-72
2022/02/24 06:16:19;;;;;;;;;;;;;;;;;;5067691;28;19943;-72
2022/02/24 06:18:45;;;;;;;;;;;;;;;;;;5071225;28;20011;-73
2022/02/24 06:21:11;;;;;;;;;;;;;;;;;;5071099;28;19923;-71
2022/02/24 06:23:36;;;;;;;;;;;;;;;;;;5054300;28;20307;-72
2022/02/24 06:26:01;;;;;;;;;;;;;;;;;;5074946;28;20361;-72
2022/02/24 06:28:27;;;;;;;;;;;;;;;;;;5072225;28;20368;-72
2022/02/24 06:30:52;;;;;;;;;;;;;;;;;;5053923;28;20474;-73
2022/02/24 06:33:17;;;;;;;;;;;;;;;;;;5053295;28;19917;-72
2022/02/24 06:35:44;;;;;;;;;;;;;;;;;;5071448;28;20388;-72
2022/02/24 06:38:11;;;;;;;;;;;;;;;;;;5053559;28;20015;-73
2022/02/24 06:40:37;;;;;;;;;;;;;;;;;;5052997;28;20407;-73
2022/02/24 06:43:02;;;;;;;;;;;;;;;;;;5070279;28;19920;-72
2022/02/24 06:45:28;;;;;;;;;;;;;;;;;;5070648;28;19947;-74
2022/02/24 06:47:54;;;;;;;;;;;;;;;;;;5071281;28;20019;-72
2022/02/24 06:50:21;;;;;;;;;;;;;;;;;;5070991;28;20281;-73
2022/02/24 06:52:46;;;;;;;;;;;;;;;;;;5070689;28;19982;-74
2022/02/24 06:55:12;;;;;;;;;;;;;;;;;;5071729;28;19917;-72
2022/02/24 06:57:45;;;;;;;;;;;;;;;;;;5072019;28;19971;-73
2022/02/24 07:00:11;;;;;;;;;;;;;;;;;;5071338;28;19917;-72
2022/02/24 07:02:37;;;;;;;;;;;;;;;;;;5071425;28;20454;-72
2022/02/24 07:05:04;;;;;;;;;;;;;;;;;;5052437;28;19916;-73
2022/02/24 07:07:31;;;;;;;;;;;;;;;;;;5071651;28;19927;-72
2022/02/24 07:09:57;;;;;;;;;;;;;;;;;;5070689;28;19967;-73
2022/02/24 07:12:22;;;;;;;;;;;;;;;;;;5053070;28;20035;-74
2022/02/24 07:14:47;;;;;;;;;;;;;;;;;;5070367;28;20050;-73
2022/02/24 07:17:13;;;;;;;;;;;;;;;;;;5070603;28;19917;-73
2022/02/24 07:19:38;;;;;;;;;;;;;;;;;;5052436;28;19920;-73
2022/02/24 07:22:03;;;;;;;;;;;;;;;;;;5070453;28;20314;-73
2022/02/24 07:24:29;;;;;;;;;;;;;;;;;;5069470;28;20351;-72
2022/02/24 07:26:54;;;;;;;;;;;;;;;;;;5071135;28;19931;-72
2022/02/24 07:29:19;;;;;;;;;;;;;;;;;;5070706;28;19924;-73
2022/02/24 07:31:45;;;;;;;;;;;;;;;;;;5053061;28;20013;-73
2022/02/24 07:34:10;;;;;;;;;;;;;;;;;;5064869;28;20012;-72
2022/02/24 07:36:39;;;;;;;;;;;;;;;;;;5053686;28;19932;-72
2022/02/24 07:39:10;;;;;;;;;;;;;;;;;;5058599;28;20067;-73
2022/02/24 07:41:36;;;;;;;;;;;;;;;;;;5058294;28;19939;-73
2022/02/24 07:44:01;;;;;;;;;;;;;;;;;;5058332;28;19916;-73
2022/02/24 07:46:27;;;;;;;;;;;;;;;;;;5065186;28;19928;-72
2022/02/24 07:48:53;;;;;;;;;;;;;;;;;;5061604;28;20268;-72
2022/02/24 07:51:18;;;;;;;;;;;;;;;;;;5045374;28;19920;-73
2022/02/24 07:53:43;;;;;;;;;;;;;;;;;;5049669;28;19925;-72
2022/02/24 07:56:09;;;;;;;;;;;;;;;;;;5046735;28;19993;-72
2022/02/24 07:58:34;;;;;;;;;;;;;;;;;;5030970;28;19929;-73
2022/02/24 08:01:00;;;;;;;;;;;;;;;;;;5043093;28;19931;-72
2022/02/24 08:03:26;;;;;;;;;;;;;;;;;;5042257;28;19925;-73
2022/02/24 08:05:54;;;;;;;;;;;;;;;;;;5044920;28;20010;-71
2022/02/24 08:08:19;;;;;;;;;;;;;;;;;;5043636;28;20051;-74
2022/02/24 08:10:44;;;;;;;;;;;;;;;;;;5046208;28;20081;-73
2022/02/24 08:13:10;;;;;;;;;;;;;;;;;;5027391;28;19936;-72
2022/02/24 08:15:35;;;;;;;;;;;;;;;;;;5047798;28;20340;-73
2022/02/24 08:18:01;;;;;;;;;;;;;;;;;;5049766;28;19921;-71
2022/02/24 08:20:27;;;;;;;;;;;;;;;;;;5027267;28;19921;-71
2022/02/24 08:22:53;;;;;;;;;;;;;;;;;;5043946;28;20023;-73
2022/02/24 08:25:19;;;;;;;;;;;;;;;;;;5045333;28;19923;-73
2022/02/24 08:27:45;;;;;;;;;;;;;;;;;;5034487;28;19921;-73
2022/02/24 08:30:13;;;;;;;;;;;;;;;;;;5047988;28;20780;-74
2022/02/24 08:32:39;;;;;;;;;;;;;;;;;;5048385;28;19921;-72
2022/02/24 08:35:05;;;;;;;;;;;;;;;;;;5047201;28;20529;-72
2022/02/24 08:37:31;;;;;;;;;;;;;;;;;;5026467;28;20046;-72
2022/02/24 08:39:56;;;;;;;;;;;;;;;;;;5044491;28;20024;-73
2022/02/24 08:42:25;;;;;;;;;;;;;;;;;;5045252;28;20389;-72
2022/02/24 08:44:54;;;;;;;;;;;;;;;;;;5047095;28;20397;-72
2022/02/24 08:47:20;;;;;;;;;;;;;;;;;;5024604;28;19947;-73
2022/02/24 08:49:46;;;;;;;;;;;;;;;;;;5026363;28;19917;-74
2022/02/24 08:52:12;;;;;;;;;;;;;;;;;;5044248;28;20711;-73
2022/02/24 08:54:37;;;;;;;;;;;;;;;;;;5025432;28;20189;-73
2022/02/24 08:57:03;;;;;;;;;;;;;;;;;;5040950;28;19920;-73
2022/02/24 08:59:29;;;;;;;;;;;;;;;;;;5041901;28;19974;-72
2022/02/24 09:01:54;;;;;;;;;;;;;;;;;;5042746;28;19913;-73
2022/02/24 09:04:20;;;;;;;;;;;;;;;;;;5043431;28;19931;-73
2022/02/24 09:06:45;;;;;;;;;;;;;;;;;;5041488;28;20012;-71
2022/02/24 09:09:11;;;;;;;;;;;;;;;;;;5026590;28;19921;-73
2022/02/24 09:11:36;;;;;;;;;;;;;;;;;;5043621;28;20015;-73
2022/02/24 09:14:02;;;;;;;;;;;;;;;;;;5023525;28;20032;-72
2022/02/24 09:16:28;;;;;;;;;;;;;;;;;;5042264;28;19920;-72
2022/02/24 09:18:54;;;;;;;;;;;;;;;;;;5044366;28;19924;-73
2022/02/24 09:21:19;;;;;;;;;;;;;;;;;;5023903;28;19980;-72
2022/02/24 09:23:44;;;;;;;;;;;;;;;;;;5042726;28;20353;-73
2022/02/24 09:26:10;;;;;;;;;;;;;;;;;;5041180;28;19927;-73
2022/02/24 09:28:36;;;;;;;;;;;;;;;;;;5038922;28;19924;-73
2022/02/24 09:31:02;;;;;;;;;;;;;;;;;;5022573;28;19937;-72
2022/02/24 09:33:28;;;;;;;;;;;;;;;;;;5040406;28;19999;-73
2022/02/24 09:35:54;;;;;;;;;;;;;;;;;;5037481;28;21352;-73
2022/02/24 09:38:20;;;;;;;;;;;;;;;;;;5019467;28;19983;-72
2022/02/24 09:40:51;;;;;;;;;;;;;;;;;;5024514;28;20428;-73
2022/02/24 09:43:18;;;;;;;;;;;;;;;;;;5033704;28;19992;-72
2022/02/24 09:45:48;;;;;;;;;;;;;;;;;;5020373;28;20613;-72
2022/02/24 09:48:17;;;;;;;;;;;;;;;;;;5018876;28;20083;-72
2022/02/24 09:50:52;;;;;;;;;;;;;;;;;;5024313;28;19947;-72
2022/02/24 09:53:18;;;;;;;;;;;;;;;;;;5024491;28;20400;-72
2022/02/24 09:55:44;;;;;;;;;;;;;;;;;;5026155;28;19991;-73
2022/02/24 09:58:10;;;;;;;;;;;;;;;;;;5021581;28;19959;-72
2022/02/24 10:00:39;;;;;;;;;;;;;;;;;;5022081;28;19921;-74
2022/02/24 10:03:23;;;;;;;;;;;;;;;;;;5021772;28;20054;-72
2022/02/24 10:05:48;;;;;;;;;;;;;;;;;;5023293;28;19960;-73
2022/02/24 10:08:14;;;;;;;;;;;;;;;;;;5018903;28;20011;-73
2022/02/24 10:10:42;;;;;;;;;;;;;;;;;;5019591;28;19989;-73
2022/02/24 10:13:09;;;;;;;;;;;;;;;;;;5013126;28;20386;-72
2022/02/24 10:15:52;;;;;;;;;;;;;;;;;;5020575;28;19963;-73
2022/02/24 10:18:18;;;;;;;;;;;;;;;;;;5022579;28;19925;-73
2022/02/24 10:20:56;;;;;;;;;;;;;;;;;;5024603;28;19925;-72
2022/02/24 10:23:29;;;;;;;;;;;;;;;;;;5022300;28;19960;-73
2022/02/24 10:25:59;;;;;;;;;;;;;;;;;;5023703;28;20495;-73
2022/02/24 10:28:42;;;;;;;;;;;;;;;;;;5023974;28;19933;-72
2022/02/24 10:31:15;;;;;;;;;;;;;;;;;;5022169;28;20016;-73
2022/02/24 10:33:42;;;;;;;;;;;;;;;;;;5036449;28;20385;-72
2022/02/24 10:36:15;;;;;;;;;;;;;;;;;;5022489;28;20270;-73
2022/02/24 10:38:42;;;;;;;;;;;;;;;;;;5025602;28;19925;-72
2022/02/24 10:41:08;;;;;;;;;;;;;;;;;;5044337;28;20243;-75
2022/02/24 10:43:42;;;;;;;;;;;;;;;;;;5043774;28;19932;-73
2022/02/24 10:46:23;;;;;;;;;;;;;;;;;;5041036;28;19971;-74
2022/02/24 10:48:51;;;;;;;;;;;;;;;;;;5040930;28;20017;-74
2022/02/24 10:51:21;;;;;;;;;;;;;;;;;;5026752;28;20325;-71
2022/02/24 10:53:58;;;;;;;;;;;;;;;;;;5043258;28;19925;-74
2022/02/24 10:56:24;;;;;;;;;;;;;;;;;;5004900;28;19944;-72
2022/02/24 10:58:51;;;;;;;;;;;;;;;;;;5039947;28;19982;-73
2022/02/24 11:01:21;;;;;;;;;;;;;;;;;;5040160;28;20028;-73
2022/02/24 11:03:54;;;;;;;;;;;;;;;;;;5039546;28;19921;-75
2022/02/24 11:06:20;;;;;;;;;;;;;;;;;;5023312;28;19921;-73
2022/02/24 11:08:46;;;;;;;;;;;;;;;;;;5038038;28;19921;-72
2022/02/24 11:11:31;;;;;;;;;;;;;;;;;;5038941;28;20301;-73
2022/02/24 11:14:00;;;;;;;;;;;;;;;;;;5024029;28;19921;-74
2022/02/24 11:16:26;;;;;;;;;;;;;;;;;;5022375;28;19968;-72
2022/02/24 11:18:53;;;;;;;;;;;;;;;;;;5039241;28;19933;-75
2022/02/24 11:21:22;;;;;;;;;;;;;;;;;;5043659;28;20546;-73
2022/02/24 11:23:48;;;;;;;;;;;;;;;;;;5042579;28;19947;-73
2022/02/24 11:26:21;;;;;;;;;;;;;;;;;;5042485;28;19925;-72
2022/02/24 11:29:02;;;;;;;;;;;;;;;;;;5025284;28;20084;-72
2022/02/24 11:31:34;;;;;;;;;;;;;;;;;;5025815;28;20375;-73
2022/02/24 11:33:59;;;;;;;;;;;;;;;;;;5042280;28;19983;-75
2022/02/24 11:36:37;;;;;;;;;;;;;;;;;;5042821;28;20361;-73
2022/02/24 11:39:10;;;;;;;;;;;;;;;;;;5040053;28;20612;-74
2022/02/24 11:41:48;;;;;;;;;;;;;;;;;;5042160;28;19932;-72
2022/02/24 11:44:33;;;;;;;;;;;;;;;;;;5022743;28;19931;-73
2022/02/24 11:46:59;;;;;;;;;;;;;;;;;;5013953;28;19921;-72
2022/02/24 11:49:51;;;;;;;;;;;;;;;;;;5029901;28;19924;-73
2022/02/24 11:52:20;;;;;;;;;;;;;;;;;;5016706;28;21413;-73
2022/02/24 11:54:46;;;;;;;;;;;;;;;;;;5044623;28;19925;-72
2022/02/24 11:57:31;;;;;;;;;;;;;;;;;;5041731;28;20427;-72
2022/02/24 11:59:57;;;;;;;;;;;;;;;;;;5042289;28;19921;-72
2022/02/24 12:02:42;;;;;;;;;;;;;;;;;;5025042;28;20016;-73
2022/02/24 12:05:17;;;;;;;;;;;;;;;;;;5042736;28;19925;-73
2022/02/24 12:08:02;;;;;;;;;;;;;;;;;;5037811;28;19929;-72
2022/02/24 12:10:45;;;;;;;;;;;;;;;;;;5024950;28;19932;-73
2022/02/24 12:13:39;;;;;;;;;;;;;;;;;;5041753;28;19979;-73
2022/02/24 12:16:15;;;;;;;;;;;;;;;;;;5022199;28;19917;-74
2022/02/24 12:18:41;;;;;;;;;;;;;;;;;;5020281;28;19931;-73
2022/02/24 12:21:25;;;;;;;;;;;;;;;;;;5039379;28;20672;-73
2022/02/24 12:23:51;;;;;;;;;;;;;;;;;;5039120;28;20431;-72
2022/02/24 12:26:37;;;;;;;;;;;;;;;;;;5038454;28;20029;-73
2022/02/24 12:29:26;;;;;;;;;;;;;;;;;;5023826;28;20018;-72
2022/02/24 12:32:00;;;;;;;;;;;;;;;;;;5021629;28;19921;-74
2022/02/24 12:34:26;;;;;;;;;;;;;;;;;;5022807;28;20000;-74
2022/02/24 12:37:02;;;;;;;;;;;;;;;;;;5023626;28;19924;-75
2022/02/24 12:39:29;;;;;;;;;;;;;;;;;;5041256;28;19920;-72
2022/02/24 12:41:55;;;;;;;;;;;;;;;;;;5043160;28;20039;-72
2022/02/24 12:44:22;;;;;;;;;;;;;;;;;;5038214;28;19929;-74
2022/02/24 12:46:49;;;;;;;;;;;;;;;;;;5025123;28;20739;-71
2022/02/24 12:49:15;;;;;;;;;;;;;;;;;;5037277;28;19924;-72
2022/02/24 12:51:45;;;;;;;;;;;;;;;;;;5040087;28;20026;-74
2022/02/24 12:54:12;;;;;;;;;;;;;;;;;;5039097;28;19921;-73
2022/02/24 12:56:39;;;;;;;;;;;;;;;;;;5020895;28;20415;-74
2022/02/24 12:59:11;;;;;;;;;;;;;;;;;;5045064;28;19939;-73
2022/02/24 13:01:38;;;;;;;;;;;;;;;;;;5029746;28;20004;-74
2022/02/24 13:04:13;;;;;;;;;;;;;;;;;;5047403;28;19998;-73
2022/02/24 13:06:40;;;;;;;;;;;;;;;;;;5041797;28;19932;-72
2022/02/24 13:12:03;;;;;;;;;;;;;;;;;;5038436;28;20066;-73
2022/02/24 13:14:31;;;;;;;;;;;;;;;;;;5037568;28;19932;-73
2022/02/24 13:16:56;;;;;;;;;;;;;;;;;;5020249;28;19921;-72
2022/02/24 13:19:23;;;;;;;;;;;;;;;;;;5041029;28;20059;-72
2022/02/24 13:21:53;;;;;;;;;;;;;;;;;;5039896;28;20285;-74
2022/02/24 13:24:25;;;;;;;;;;;;;;;;;;5020864;28;20031;-73
2022/02/24 13:26:51;;;;;;;;;;;;;;;;;;5037952;28;20024;-74
2022/02/24 13:29:20;;;;;;;;;;;;;;;;;;5039483;28;20447;-74
2022/02/24 13:31:48;;;;;;;;;;;;;;;;;;5038513;28;20027;-73
2022/02/24 13:34:15;;;;;;;;;;;;;;;;;;5039793;28;20172;-74
2022/02/24 13:36:41;;;;;;;;;;;;;;;;;;5037956;28;20512;-71
2022/02/24 13:39:06;;;;;;;;;;;;;;;;;;5039202;28;20118;-72
2022/02/24 13:41:32;;;;;;;;;;;;;;;;;;5037136;28;19976;-73
2022/02/24 13:43:59;;;;;;;;;;;;;;;;;;5036494;28;19993;-73
2022/02/24 13:46:41;;;;;;;;;;;;;;;;;;5033566;28;19931;-73
2022/02/24 13:49:10;;;;;;;;;;;;;;;;;;5037392;28;19928;-74
2022/02/24 13:51:37;;;;;;;;;;;;;;;;;;5023722;28;20003;-72
2022/02/24 13:54:03;;;;;;;;;;;;;;;;;;5043217;28;20235;-73
2022/02/24 13:56:29;;;;;;;;;;;;;;;;;;5005005;28;19929;-73
2022/02/24 13:58:59;;;;;;;;;;;;;;;;;;5025908;28;20051;-73
2022/02/24 14:01:25;;;;;;;;;;;;;;;;;;5041563;28;19927;-73
2022/02/24 14:03:55;;;;;;;;;;;;;;;;;;5031227;28;19924;-73
2022/02/24 14:06:21;;;;;;;;;;;;;;;;;;5044304;28;19925;-72
2022/02/24 14:08:47;;;;;;;;;;;;;;;;;;5043612;28;19927;-73
2022/02/24 14:11:21;;;;;;;;;;;;;;;;;;5036544;28;19920;-73
2022/02/24 14:13:47;;;;;;;;;;;;;;;;;;5045519;28;19931;-73
2022/02/24 14:16:13;;;;;;;;;;;;;;;;;;5025992;28;19920;-73
2022/02/24 14:18:39;;;;;;;;;;;;;;;;;;5023324;28;19956;-73
2022/02/24 14:21:06;;;;;;;;;;;;;;;;;;5044203;28;20404;-73
2022/02/24 14:23:32;;;;;;;;;;;;;;;;;;5020443;28;19948;-74
2022/02/24 14:25:58;;;;;;;;;;;;;;;;;;5040395;28;19986;-74
2022/02/24 14:28:27;;;;;;;;;;;;;;;;;;5023594;28;19928;-75
2022/02/24 14:30:54;;;;;;;;;;;;;;;;;;5043248;28;19951;-73
2022/02/24 14:33:20;;;;;;;;;;;;;;;;;;5024553;28;20659;-73
2022/02/24 14:35:46;;;;;;;;;;;;;;;;;;5044094;28;20026;-72
2022/02/24 14:38:12;;;;;;;;;;;;;;;;;;5041907;28;20604;-73
2022/02/24 14:40:40;;;;;;;;;;;;;;;;;;5020358;28;20263;-73
2022/02/24 14:43:06;;;;;;;;;;;;;;;;;;5027255;28;19973;-74
2022/02/24 14:45:32;;;;;;;;;;;;;;;;;;5023308;28;20397;-74
2022/02/24 14:47:58;;;;;;;;;;;;;;;;;;5022964;28;20425;-74
2022/02/24 14:50:24;;;;;;;;;;;;;;;;;;5022719;28;19928;-74
2022/02/24 14:52:50;;;;;;;;;;;;;;;;;;5020236;28;20389;-74
2022/02/24 14:55:16;;;;;;;;;;;;;;;;;;5016934;28;19952;-73
2022/02/24 14:57:42;;;;;;;;;;;;;;;;;;5022506;28;19924;-75
2022/02/24 15:00:08;;;;;;;;;;;;;;;;;;5017019;28;20373;-73
2022/02/24 15:02:33;;;;;;;;;;;;;;;;;;5024417;28;19921;-73
2022/02/24 15:04:59;;;;;;;;;;;;;;;;;;5019019;28;20300;-73
2022/02/24 15:07:25;;;;;;;;;;;;;;;;;;5027633;28;20001;-73
2022/02/24 15:09:51;;;;;;;;;;;;;;;;;;5028629;28;19917;-75
2022/02/24 15:12:16;;;;;;;;;;;;;;;;;;5027230;28;19921;-72
2022/02/24 15:14:42;;;;;;;;;;;;;;;;;;5022824;28;19925;-73
2022/02/24 15:17:08;;;;;;;;;;;;;;;;;;5026898;28;20360;-74
2022/02/24 15:19:34;;;;;;;;;;;;;;;;;;5019347;28;20077;-72
2022/02/24 15:22:02;;;;;;;;;;;;;;;;;;5022163;28;20031;-73
2022/02/24 15:24:28;;;;;;;;;;;;;;;;;;5020464;28;19925;-72
2022/02/24 15:26:54;;;;;;;;;;;;;;;;;;5018106;28;19943;-72
2022/02/24 15:29:20;;;;;;;;;;;;;;;;;;5027584;28;20393;-74
2022/02/24 15:31:46;;;;;;;;;;;;;;;;;;5041280;28;19930;-73
2022/02/24 15:34:12;;;;;;;;;;;;;;;;;;5007449;28;19929;-74
2022/02/24 15:36:37;;;;;;;;;;;;;;;;;;5018478;28;19925;-73
2022/02/24 15:39:03;;;;;;;;;;;;;;;;;;5027117;28;19925;-74
2022/02/24 15:41:29;;;;;;;;;;;;;;;;;;5042097;28;19929;-72
2022/02/24 15:43:55;;;;;;;;;;;;;;;;;;5024563;28;19925;-74
2022/02/24 15:46:21;;;;;;;;;;;;;;;;;;5037266;28;19979;-75
2022/02/24 15:48:47;;;;;;;;;;;;;;;;;;5043713;28;19928;-74
2022/02/24 15:51:13;;;;;;;;;;;;;;;;;;5036108;28;19962;-74
2022/02/24 15:53:42;;;;;;;;;;;;;;;;;;5043796;28;19982;-74
2022/02/24 15:56:07;;;;;;;;;;;;;;;;;;5046954;28;19956;-73
2022/02/24 15:58:37;;;;;;;;;;;;;;;;;;5043155;28;20005;-75
2022/02/24 16:01:06;;;;;;;;;;;;;;;;;;5048781;28;19921;-74
2022/02/24 16:03:32;;;;;;;;;;;;;;;;;;5041431;28;19920;-75
2022/02/24 16:05:58;;;;;;;;;;;;;;;;;;5048411;28;20288;-75
2022/02/24 16:08:25;;;;;;;;;;;;;;;;;;5035716;28;19940;-73
2022/02/24 16:10:50;;;;;;;;;;;;;;;;;;5047240;28;20015;-74
2022/02/24 16:13:16;;;;;;;;;;;;;;;;;;5029498;28;19999;-73
2022/02/24 16:15:41;;;;;;;;;;;;;;;;;;5030687;28;19926;-75
2022/02/24 16:18:08;;;;;;;;;;;;;;;;;;5046764;28;20285;-74
2022/02/24 16:20:33;;;;;;;;;;;;;;;;;;5029857;28;20396;-73
2022/02/24 16:22:59;;;;;;;;;;;;;;;;;;5047542;28;20020;-74
2022/02/24 16:25:26;;;;;;;;;;;;;;;;;;5045664;28;19924;-74
2022/02/24 16:27:51;;;;;;;;;;;;;;;;;;5028892;28;20028;-74
2022/02/24 16:30:16;;;;;;;;;;;;;;;;;;5048992;28;20123;-74
2022/02/24 16:32:42;;;;;;;;;;;;;;;;;;5048332;28;19964;-74
2022/02/24 16:35:09;;;;;;;;;;;;;;;;;;5047013;28;19928;-74
2022/02/24 16:37:34;;;;;;;;;;;;;;;;;;5048222;28;19920;-73
2022/02/24 16:40:04;;;;;;;;;;;;;;;;;;5030558;28;20104;-73
2022/02/24 16:42:29;;;;;;;;;;;;;;;;;;5049247;28;19923;-73
2022/02/24 16:44:55;;;;;;;;;;;;;;;;;;5047687;28;20304;-73
2022/02/24 16:47:20;;;;;;;;;;;;;;;;;;5014334;28;20396;-75
2022/02/24 16:49:46;;;;;;;;;;;;;;;;;;5031290;28;19916;-74